Time;durP1;ratioP1;P1;durP2;ratioP2;P2;SDS_P1;SDS_P2;PMS_P1;PMS_P2;Temp;Humidity;BMP_temperature;BMP_pressure;BME280_temperature;BME280_humidity;BME280_pressure;Samples;Min_cycle;Max_cycle;Signal;HPM_P1;HPM_P2
2023/10/18 00:00:28;;;;;;;0.82;0.82;;;;;;;1.82;77.63;97546.34;5007995;28;20062;-73
2023/10/18 00:02:56;;;;;;;0.85;0.85;;;;;;;1.69;78.02;97548.44;5010138;28;20034;-75
2023/10/18 00:05:25;;;;;;;1.10;1.10;;;;;;;1.59;78.57;97542.34;5008636;28;20053;-74
2023/10/18 00:07:56;;;;;;;0.93;0.93;;;;;;;1.60;78.21;97536.13;5005043;28;20057;-76
2023/10/18 00:10:25;;;;;;;0.95;0.95;;;;;;;1.61;78.24;97527.28;5008766;28;20061;-73
2023/10/18 00:12:53;;;;;;;0.82;0.82;;;;;;;1.74;77.75;97522.56;5008606;28;20046;-72
2023/10/18 00:15:23;;;;;;;0.98;0.90;;;;;;;1.64;78.05;97523.53;5006823;28;20112;-74
2023/10/18 00:17:50;;;;;;;0.85;0.85;;;;;;;1.61;77.80;97521.19;5006627;28;20046;-71
2023/10/18 00:20:21;;;;;;;1.25;1.25;;;;;;;1.67;77.68;97518.81;5010053;28;20115;-72
2023/10/18 00:22:49;;;;;;;0.73;0.73;;;;;;;1.63;77.64;97516.63;5011864;28;20116;-73
2023/10/18 00:25:17;;;;;;;0.98;0.98;;;;;;;1.70;77.33;97515.91;5012536;28;20034;-71
2023/10/18 00:27:46;;;;;;;0.93;0.93;;;;;;;1.62;77.74;97512.31;5011929;28;20048;-72
2023/10/18 00:30:14;;;;;;;1.10;1.10;;;;;;;1.71;77.53;97514.09;5016470;28;20097;-72
2023/10/18 00:32:43;;;;;;;1.00;1.00;;;;;;;1.65;77.55;97518.13;5016077;28;20053;-71
2023/10/18 00:35:18;;;;;;;0.75;0.75;;;;;;;1.56;77.97;97510.25;5014763;28;20092;-71
2023/10/18 00:37:48;;;;;;;0.80;0.80;;;;;;;1.71;78.27;97506.22;5015218;28;20033;-71
2023/10/18 00:40:33;;;;;;;0.73;0.73;;;;;;;1.72;77.86;97506.06;5012051;28;20037;-73
2023/10/18 00:43:10;;;;;;;0.75;0.75;;;;;;;1.70;78.22;97507.19;5010828;28;20568;-73
2023/10/18 00:45:41;;;;;;;0.75;0.75;;;;;;;1.81;77.53;97502.59;5010695;28;20559;-73
2023/10/18 00:48:11;;;;;;;1.00;1.00;;;;;;;1.90;77.00;97505.31;5010499;28;20052;-73
2023/10/18 00:50:43;;;;;;;2.63;0.88;;;;;;;1.90;76.85;97502.69;5011767;28;20074;-73
2023/10/18 00:53:11;;;;;;;0.60;0.60;;;;;;;1.82;76.78;97487.63;5012005;28;20059;-73
2023/10/18 00:55:39;;;;;;;0.85;0.85;;;;;;;1.72;77.12;97492.91;5011249;28;20050;-73
2023/10/18 00:58:08;;;;;;;0.70;0.70;;;;;;;1.67;76.76;97494.31;5011799;28;20069;-73
2023/10/18 01:00:40;;;;;;;0.70;0.70;;;;;;;1.68;76.79;97486.28;5011134;28;20489;-73
2023/10/18 01:03:15;;;;;;;0.80;0.80;;;;;;;1.63;76.78;97485.06;5011632;28;20038;-74
2023/10/18 01:06:00;;;;;;;1.15;1.15;;;;;;;1.62;76.87;97486.84;5012019;28;20493;-73
2023/10/18 01:08:30;;;;;;;0.73;0.73;;;;;;;1.59;76.58;97487.13;5010004;28;20519;-74
2023/10/18 01:11:03;;;;;;;0.77;0.77;;;;;;;1.50;76.82;97490.59;5011158;28;20060;-73
2023/10/18 01:13:32;;;;;;;0.98;0.98;;;;;;;1.30;77.79;97489.81;5011039;28;20046;-73
2023/10/18 01:16:05;;;;;;;0.73;0.73;;;;;;;1.36;77.38;97483.97;5010087;28;20065;-73
2023/10/18 01:18:35;;;;;;;0.82;0.82;;;;;;;1.21;78.10;97482.75;5009233;28;20537;-73
2023/10/18 01:21:13;;;;;;;0.88;0.88;;;;;;;1.33;77.34;97480.81;5011523;28;20046;-74
2023/10/18 01:23:44;;;;;;;0.82;0.82;;;;;;;1.15;78.30;97480.66;5011549;28;20030;-73
2023/10/18 01:26:14;;;;;;;1.25;1.25;;;;;;;0.98;79.17;97487.44;5008936;28;20053;-72
2023/10/18 01:28:43;;;;;;;0.70;0.70;;;;;;;1.03;78.53;97476.53;5009233;28;20041;-73
2023/10/18 01:31:12;;;;;;;1.20;1.20;;;;;;;1.01;78.82;97479.31;5009946;28;20038;-73
2023/10/18 01:33:43;;;;;;;0.82;0.82;;;;;;;1.01;78.76;97478.47;5007783;28;20062;-73
2023/10/18 01:36:14;;;;;;;0.73;0.73;;;;;;;1.02;78.69;97472.25;5010966;28;20049;-73
2023/10/18 01:38:44;;;;;;;0.80;0.80;;;;;;;1.01;78.77;97474.03;5009877;28;20045;-73
2023/10/18 01:41:16;;;;;;;0.90;0.90;;;;;;;1.03;78.72;97473.91;5009531;28;20053;-74
2023/10/18 01:43:47;;;;;;;0.63;0.63;;;;;;;0.99;78.40;97473.34;5008491;28;20060;-73
2023/10/18 01:46:16;;;;;;;0.85;0.85;;;;;;;0.87;79.28;97469.19;5009733;28;20050;-72
2023/10/18 01:48:50;;;;;;;0.80;0.80;;;;;;;1.04;78.76;97460.59;5008641;28;20052;-73
2023/10/18 01:51:19;;;;;;;0.35;0.35;;;;;;;1.05;78.38;97457.00;5007203;28;20608;-72
2023/10/18 01:53:47;;;;;;;0.40;0.40;;;;;;;1.01;78.43;97460.91;5008194;28;20077;-73
2023/10/18 01:56:21;;;;;;;0.80;0.80;;;;;;;1.03;78.76;97455.53;5011033;28;20081;-75
2023/10/18 01:58:50;;;;;;;0.73;0.73;;;;;;;1.21;77.89;97455.63;5008939;28;20046;-72
2023/10/18 02:01:18;;;;;;;0.75;0.75;;;;;;;1.16;77.61;97461.31;5008815;28;20042;-72
2023/10/18 02:03:49;;;;;;;0.77;0.77;;;;;;;1.09;77.87;97461.03;5007057;28;20114;-72
2023/10/18 02:06:19;;;;;;;0.80;0.80;;;;;;;1.12;77.48;97459.09;5008273;28;20494;-72
2023/10/18 02:08:48;;;;;;;0.70;0.70;;;;;;;1.10;77.67;97454.81;5007522;28;20045;-72
2023/10/18 02:11:16;;;;;;;0.43;0.43;;;;;;;0.99;77.86;97457.59;5010095;28;20375;-72
2023/10/18 02:13:44;;;;;;;1.17;1.17;;;;;;;1.02;77.56;97452.06;5006800;28;20111;-72
2023/10/18 02:16:15;;;;;;;0.40;0.40;;;;;;;1.10;77.14;97456.63;5010687;28;20438;-72
2023/10/18 02:18:46;;;;;;;0.90;0.90;;;;;;;1.05;77.13;97459.66;5010923;28;20117;-72
2023/10/18 02:21:15;;;;;;;0.80;0.80;;;;;;;1.23;76.09;97457.16;5013101;28;20064;-72
2023/10/18 02:23:46;;;;;;;0.80;0.80;;;;;;;0.99;76.75;97456.75;5013435;28;20058;-72
2023/10/18 02:26:30;;;;;;;0.88;0.88;;;;;;;0.84;77.47;97447.59;5012715;28;20056;-72
2023/10/18 02:28:59;;;;;;;0.80;0.80;;;;;;;0.71;77.45;97454.00;5010568;28;20046;-73
2023/10/18 02:31:30;;;;;;;0.80;0.80;;;;;;;0.60;78.26;97456.75;5010578;28;20120;-73
2023/10/18 02:33:58;;;;;;;0.70;0.70;;;;;;;0.61;78.22;97453.16;5009519;28;20038;-74
2023/10/18 02:36:33;;;;;;;0.82;0.82;;;;;;;0.58;78.16;97455.22;5009307;28;20057;-72
2023/10/18 02:39:00;;;;;;;0.68;0.68;;;;;;;0.68;77.77;97454.25;5009816;28;20141;-71
2023/10/18 02:41:28;;;;;;;0.90;0.90;;;;;;;0.60;78.03;97450.66;5010903;28;20045;-72
2023/10/18 02:43:57;;;;;;;0.70;0.70;;;;;;;0.52;77.97;97450.50;5007677;28;20040;-73
2023/10/18 02:46:26;;;;;;;0.93;0.93;;;;;;;0.51;78.61;97451.47;5007445;28;20046;-73
2023/10/18 02:48:57;;;;;;;0.90;0.90;;;;;;;0.47;78.54;97450.06;5008599;28;20041;-73
2023/10/18 02:51:26;;;;;;;1.23;1.23;;;;;;;0.59;77.96;97446.38;5008861;28;20065;-74
2023/10/18 02:54:00;;;;;;;0.70;0.70;;;;;;;0.54;78.21;97438.88;5009467;28;20038;-73
2023/10/18 02:56:32;;;;;;;0.82;0.82;;;;;;;0.47;78.77;97440.41;5009740;28;20095;-73
2023/10/18 02:59:06;;;;;;;0.60;0.60;;;;;;;0.49;78.47;97433.22;5008394;28;20137;-73
2023/10/18 03:01:36;;;;;;;0.90;0.90;;;;;;;0.51;78.42;97438.34;5008525;28;21212;-73
2023/10/18 03:04:08;;;;;;;1.02;1.02;;;;;;;0.60;78.09;97430.47;5024142;28;20041;-73
2023/10/18 03:06:37;;;;;;;0.85;0.85;;;;;;;0.69;77.69;97423.56;5009817;28;20069;-73
2023/10/18 03:09:18;;;;;;;0.93;0.93;;;;;;;0.67;77.15;97426.34;5009146;28;20069;-73
2023/10/18 03:11:46;;;;;;;0.88;0.88;;;;;;;0.69;77.43;97418.31;5009788;28;20543;-71
2023/10/18 03:14:14;;;;;;;0.90;0.90;;;;;;;0.71;77.05;97421.66;5023086;28;20041;-74
2023/10/18 03:16:46;;;;;;;0.98;0.98;;;;;;;0.51;77.98;97428.69;5006709;28;20048;-73
2023/10/18 03:19:18;;;;;;;;;;;;;;;0.54;78.66;97428.38;5009123;28;20493;-73
2023/10/18 03:21:48;;;;;;;0.77;0.77;;;;;;;0.67;78.42;97417.63;5008010;28;19922;-73
2023/10/18 03:24:19;;;;;;;0.40;0.40;;;;;;;0.72;77.84;97416.25;5008056;28;20409;-71
2023/10/18 03:26:47;;;;;;;0.88;0.88;;;;;;;0.68;77.96;97416.66;5007682;28;20482;-74
2023/10/18 03:29:15;;;;;;;0.88;0.88;;;;;;;0.61;77.93;97410.31;5007784;28;20120;-74
2023/10/18 03:31:44;;;;;;;0.82;0.82;;;;;;;0.62;78.16;97411.97;5007156;28;20076;-74
2023/10/18 03:34:16;;;;;;;0.93;0.93;;;;;;;0.73;77.49;97409.19;5009243;28;20042;-74
2023/10/18 03:36:51;;;;;;;0.60;0.60;;;;;;;0.66;77.80;97414.16;5009085;28;20411;-74
2023/10/18 03:39:20;;;;;;;1.25;1.25;;;;;;;0.78;78.09;97401.72;5006986;28;20054;-74
2023/10/18 03:41:49;;;;;;;1.02;1.02;;;;;;;0.86;77.52;97404.50;5008477;28;20042;-74
2023/10/18 03:44:21;;;;;;;0.80;0.80;;;;;;;0.79;77.60;97392.06;5007614;28;20044;-74
2023/10/18 03:46:49;;;;;;;0.80;0.80;;;;;;;0.56;77.73;97394.94;5008870;28;20485;-73
2023/10/18 03:49:22;;;;;;;0.85;0.85;;;;;;;0.60;77.79;97388.47;5007602;28;20041;-73
2023/10/18 03:51:54;;;;;;;0.80;0.80;;;;;;;0.70;77.25;97391.94;5007511;28;20050;-73
2023/10/18 03:54:23;;;;;;;0.95;0.95;;;;;;;0.77;77.45;97383.47;5006564;28;20045;-73
2023/10/18 03:56:53;;;;;;;1.10;1.10;;;;;;;0.59;77.40;97383.34;5009226;28;20156;-73
2023/10/18 03:59:21;;;;;;;0.85;0.85;;;;;;;0.52;77.80;97384.88;4999112;28;20057;-73
2023/10/18 04:02:15;;;;;;;0.95;0.95;;;;;;;0.44;78.23;97374.22;5008290;28;20486;-72
2023/10/18 04:04:46;;;;;;;0.40;0.40;;;;;;;0.48;77.91;97384.31;5004943;28;20752;-73
2023/10/18 04:07:19;;;;;;;0.90;0.90;;;;;;;0.38;78.26;97372.16;5008874;28;20120;-72
2023/10/18 04:09:53;;;;;;;0.68;0.68;;;;;;;0.35;78.71;97376.69;5003804;28;20038;-72
2023/10/18 04:12:22;;;;;;;0.70;0.70;;;;;;;0.41;78.28;97374.50;5011853;28;20037;-73
2023/10/18 04:14:59;;;;;;;0.75;0.75;;;;;;;0.39;78.44;97372.00;5012816;28;20074;-73
2023/10/18 04:17:37;;;;;;;0.90;0.90;;;;;;;0.42;77.92;97366.47;5009093;28;20046;-72
2023/10/18 04:20:22;;;;;;;1.02;1.02;;;;;;;0.43;77.80;97362.88;5011760;28;20042;-74
2023/10/18 04:22:51;;;;;;;;;;;;;;;0.44;77.65;97375.03;5014708;28;20100;-72
2023/10/18 04:25:26;;;;;;;0.98;0.98;;;;;;;0.12;78.32;97366.56;5014135;28;19927;-72
2023/10/18 04:27:54;;;;;;;0.80;0.80;;;;;;;0.06;78.64;97357.47;5014856;28;20056;-72
2023/10/18 04:30:23;;;;;;;0.85;0.85;;;;;;;0.13;78.76;97358.56;5014040;28;20528;-72
2023/10/18 04:32:54;;;;;;;0.80;0.80;;;;;;;0.31;77.23;97358.75;5013765;28;20081;-72
2023/10/18 04:35:29;;;;;;;0.80;0.80;;;;;;;0.30;77.52;97357.09;5013964;28;20038;-72
2023/10/18 04:37:58;;;;;;;0.90;0.90;;;;;;;0.14;78.69;97356.78;5014352;28;20132;-72
2023/10/18 04:40:26;;;;;;;0.73;0.73;;;;;;;0.13;79.86;97355.94;5015824;28;20117;-72
2023/10/18 04:42:57;;;;;;;0.85;0.85;;;;;;;0.13;79.33;97353.31;5016877;28;20552;-72
2023/10/18 04:45:26;;;;;;;1.00;1.00;;;;;;;0.14;78.92;97338.41;5015455;28;20120;-72
2023/10/18 04:48:06;;;;;;;0.80;0.80;;;;;;;0.07;79.17;97340.75;5019054;28;20120;-72
2023/10/18 04:50:33;;;;;;;0.63;0.63;;;;;;;0.11;78.85;97349.16;5017946;28;20523;-73
2023/10/18 04:53:10;;;;;;;1.00;0.80;;;;;;;0.23;78.25;97345.47;5016685;28;20133;-72
2023/10/18 04:55:41;;;;;;;0.22;0.22;;;;;;;0.17;78.01;97346.03;5016195;28;20400;-73
2023/10/18 04:58:11;;;;;;;0.95;0.95;;;;;;;-0.03;78.49;97338.13;5015201;28;20117;-73
2023/10/18 05:00:50;;;;;;;0.88;0.88;;;;;;;-0.01;78.77;97338.81;5015006;28;20145;-73
2023/10/18 05:03:18;;;;;;;1.55;1.55;;;;;;;0.00;79.19;97350.16;5020213;28;20042;-72
2023/10/18 05:05:45;;;;;;;0.93;0.93;;;;;;;0.05;78.99;97355.81;5015726;28;20126;-71
2023/10/18 05:08:16;;;;;;;;;;;;;;;0.06;79.02;97349.59;5018771;28;20066;-71
2023/10/18 05:10:45;;;;;;;0.88;0.88;;;;;;;0.11;78.54;97346.53;5015150;28;19922;-73
2023/10/18 05:13:25;;;;;;;0.85;0.85;;;;;;;0.06;79.39;97341.72;5013087;28;20104;-73
2023/10/18 05:16:00;;;;;;;1.52;1.08;;;;;;;0.06;78.92;97344.34;5007329;28;20038;-73
2023/10/18 05:18:30;;;;;;;0.75;0.75;;;;;;;0.12;78.19;97341.16;5010801;28;20045;-73
2023/10/18 05:20:58;;;;;;;1.63;1.63;;;;;;;0.04;78.79;97343.66;5013346;28;20046;-72
2023/10/18 05:23:27;;;;;;;0.80;0.80;;;;;;;0.15;78.73;97350.56;5013070;28;20057;-71
2023/10/18 05:26:08;;;;;;;0.93;0.93;;;;;;;0.08;78.09;97349.47;5013094;28;20038;-71
2023/10/18 05:28:47;;;;;;;1.08;1.08;;;;;;;0.01;78.60;97341.28;5012823;28;20057;-74
2023/10/18 05:34:04;;;;;;;0.82;0.82;;;;;;;-0.06;79.02;97342.81;5007033;28;20142;-71
2023/10/18 05:36:36;;;;;;;1.48;1.48;;;;;;;0.02;78.19;97334.25;5012510;28;20038;-71
2023/10/18 05:39:27;;;;;;;1.00;1.00;;;;;;;0.04;78.50;97338.41;5012496;28;20041;-71
2023/10/18 05:42:03;;;;;;;1.02;1.02;;;;;;;0.02;78.34;97340.31;5007512;28;20050;-71
2023/10/18 05:44:31;;;;;;;1.08;1.02;;;;;;;0.08;78.33;97333.72;5009931;28;20064;-74
2023/10/18 05:46:59;;;;;;;0.95;0.95;;;;;;;0.11;77.55;97328.19;5013001;28;20117;-71
2023/10/18 05:49:32;;;;;;;1.00;1.00;;;;;;;0.07;77.98;97327.66;5013821;28;20045;-71
2023/10/18 05:54:56;;;;;;;0.43;0.43;;;;;;;-0.01;78.46;97328.34;5087959;28;20401;-72
2023/10/18 05:57:24;;;;;;;0.40;0.40;;;;;;;-0.07;78.33;97335.91;5077518;28;20040;-72
2023/10/18 05:59:52;;;;;;;0.30;0.30;;;;;;;-0.06;78.56;97335.75;5050247;28;20055;-72
2023/10/18 06:02:26;;;;;;;0.35;0.35;;;;;;;-0.01;78.81;97332.75;5063016;28;20135;-72
2023/10/18 06:04:56;;;;;;;0.43;0.43;;;;;;;-0.03;78.54;97337.28;5060813;28;20408;-72
2023/10/18 06:07:24;;;;;;;0.45;0.45;;;;;;;-0.06;78.69;97337.56;5060199;28;20044;-72
2023/10/18 06:09:57;;;;;;;0.47;0.47;;;;;;;-0.11;78.30;97337.97;5064353;28;20095;-72
2023/10/18 06:12:30;;;;;;;0.73;0.73;;;;;;;-0.05;78.88;97328.72;5062109;28;20442;-72
2023/10/18 06:15:10;;;;;;;0.50;0.50;;;;;;;0.10;78.01;97335.25;5062517;28;20045;-72
2023/10/18 06:17:47;;;;;;;0.50;0.50;;;;;;;-0.02;78.13;97337.16;5055853;28;20045;-72
2023/10/18 06:20:24;;;;;;;0.60;0.60;;;;;;;-0.15;79.03;97330.50;5060845;28;20060;-73
2023/10/18 06:22:53;;;;;;;0.50;0.50;;;;;;;-0.03;78.92;97325.00;5054351;28;20052;-72
2023/10/18 06:25:26;;;;;;;0.40;0.40;;;;;;;-0.03;78.82;97316.31;5059155;28;20498;-72
2023/10/18 06:27:55;;;;;;;0.45;0.45;;;;;;;0.03;78.99;97313.13;5058601;28;20052;-72
2023/10/18 06:30:24;;;;;;;0.50;0.50;;;;;;;0.12;78.76;97325.44;5051392;28;20049;-72
2023/10/18 06:32:53;;;;;;;0.40;0.40;;;;;;;0.17;78.37;97315.38;5052696;28;20068;-72
2023/10/18 06:35:26;;;;;;;1.15;0.50;;;;;;;0.14;78.38;97322.66;5059649;28;20534;-72
2023/10/18 06:37:54;;;;;;;0.50;0.50;;;;;;;0.13;78.48;97313.13;5052763;28;20049;-73
2023/10/18 06:40:24;;;;;;;0.32;0.32;;;;;;;0.10;78.33;97303.78;5069166;28;20040;-72
2023/10/18 06:42:51;;;;;;;0.40;0.40;;;;;;;0.10;78.64;97305.56;5050842;28;20053;-73
2023/10/18 06:45:25;;;;;;;0.40;0.40;;;;;;;0.04;78.91;97309.53;5060476;28;20040;-72
2023/10/18 06:47:54;;;;;;;0.40;0.40;;;;;;;0.03;79.33;97294.78;5050520;28;20045;-73
2023/10/18 06:50:26;;;;;;;0.50;0.50;;;;;;;0.15;79.14;97303.34;5080932;28;20096;-71
2023/10/18 06:52:55;;;;;;;0.40;0.40;;;;;;;0.24;79.02;97303.34;5079030;28;20049;-71
2023/10/18 06:55:35;;;;;;;0.30;0.30;;;;;;;0.26;79.13;97290.94;5076941;28;20037;-73
2023/10/18 06:58:11;;;;;;;0.63;0.63;;;;;;;0.27;79.57;97289.13;5077736;28;20059;-73
2023/10/18 07:00:46;;;;;;;0.50;0.50;;;;;;;0.38;79.26;97293.41;5067133;28;20044;-73
2023/10/18 07:03:17;;;;;;;0.40;0.40;;;;;;;0.54;79.36;97286.63;5061256;28;20049;-71
2023/10/18 07:05:49;;;;;;;0.38;0.38;;;;;;;0.65;78.55;97289.09;5040360;28;20151;-73
2023/10/18 07:08:20;;;;;;;0.50;0.50;;;;;;;0.76;78.74;97292.53;5045597;28;20041;-73
2023/10/18 07:10:54;;;;;;;0.40;0.40;;;;;;;0.74;78.34;97296.13;5039115;28;20152;-73
2023/10/18 07:13:46;;;;;;;0.30;0.30;;;;;;;0.82;78.43;97302.50;5047386;28;20052;-73
2023/10/18 07:16:18;;;;;;;0.40;0.40;;;;;;;0.84;78.54;97298.72;5046577;28;20053;-73
2023/10/18 07:18:53;;;;;;;1.08;1.08;;;;;;;0.91;78.53;97299.00;5045305;28;20635;-73
2023/10/18 07:21:24;;;;;;;0.40;0.40;;;;;;;1.00;78.52;97301.63;5043225;28;20053;-73
2023/10/18 07:23:54;;;;;;;0.45;0.45;;;;;;;1.11;78.44;97295.34;5044146;28;20045;-73
2023/10/18 07:26:24;;;;;;;0.57;0.57;;;;;;;1.15;78.38;97288.00;5049491;28;20500;-73
2023/10/18 07:28:54;;;;;;;0.50;0.50;;;;;;;1.14;78.51;97292.44;5047423;28;20049;-73
2023/10/18 07:31:32;;;;;;;0.40;0.40;;;;;;;1.19;78.22;97281.50;5042335;28;20036;-73
2023/10/18 07:34:02;;;;;;;0.70;0.70;;;;;;;1.29;78.33;97277.84;5039541;28;20096;-73
2023/10/18 07:36:37;;;;;;;0.60;0.60;;;;;;;1.37;77.93;97277.13;5038728;28;20036;-72
2023/10/18 07:39:05;;;;;;;0.40;0.40;;;;;;;1.50;77.97;97277.63;5043735;28;20128;-72
2023/10/18 07:41:34;;;;;;;0.50;0.50;;;;;;;1.46;77.79;97279.69;5052066;28;20041;-72
2023/10/18 07:44:05;;;;;;;0.50;0.50;;;;;;;1.44;77.90;97275.59;5040982;28;20080;-72
2023/10/18 07:46:39;;;;;;;0.30;0.30;;;;;;;1.45;78.27;97275.41;5041990;28;20124;-72
2023/10/18 07:49:11;;;;;;;0.30;0.30;;;;;;;1.48;78.46;97279.56;5039431;28;20124;-73
2023/10/18 07:51:43;;;;;;;0.38;0.38;;;;;;;1.47;78.78;97272.66;5045535;28;20064;-73
2023/10/18 07:54:14;;;;;;;0.57;0.57;;;;;;;1.58;78.57;97271.63;5038675;28;20080;-72
2023/10/18 07:56:48;;;;;;;0.50;0.50;;;;;;;1.65;78.78;97264.81;5047885;28;20045;-72
2023/10/18 07:59:29;;;;;;;0.50;0.50;;;;;;;1.73;78.71;97257.00;5045855;28;20120;-73
2023/10/18 08:02:12;;;;;;;0.50;0.50;;;;;;;1.85;78.19;97261.09;5048398;28;20495;-73
2023/10/18 08:04:42;;;;;;;0.50;0.50;;;;;;;1.97;78.28;97249.38;5037026;28;20512;-73
2023/10/18 08:07:12;;;;;;;0.40;0.40;;;;;;;2.07;77.94;97241.41;5048675;28;20044;-73
2023/10/18 08:09:41;;;;;;;0.55;0.55;;;;;;;2.16;77.89;97249.22;5034908;28;20037;-72
2023/10/18 08:12:19;;;;;;;0.40;0.40;;;;;;;2.25;77.52;97247.50;5045041;28;20109;-72
2023/10/18 08:14:48;;;;;;;0.32;0.32;;;;;;;2.30;77.26;97233.84;5048518;28;20045;-72
2023/10/18 08:17:43;;;;;;;0.50;0.50;;;;;;;2.35;77.41;97242.16;5038731;28;20087;-72
2023/10/18 08:20:40;;;;;;;0.43;0.43;;;;;;;2.45;77.28;97241.06;5046532;28;20045;-72
2023/10/18 08:23:19;;;;;;;0.47;0.40;;;;;;;2.60;77.29;97237.91;5039807;28;20051;-72
2023/10/18 08:25:51;;;;;;;0.30;0.30;;;;;;;2.75;77.23;97238.97;5045036;28;20048;-72
2023/10/18 08:28:19;;;;;;;;;;;;;;;2.80;77.17;97239.34;5045805;28;20075;-72
2023/10/18 08:33:30;;;;;;;0.50;0.50;;;;;;;2.96;76.73;97226.25;5044501;28;20048;-72
2023/10/18 08:36:06;;;;;;;0.32;0.32;;;;;;;3.11;76.55;97229.16;5034018;28;20037;-72
2023/10/18 08:38:34;;;;;;;0.52;0.52;;;;;;;3.18;76.30;97212.53;5035146;28;20128;-72
2023/10/18 08:41:13;;;;;;;0.52;0.52;;;;;;;3.33;76.38;97220.66;5048468;28;20453;-71
2023/10/18 08:43:52;;;;;;;0.40;0.40;;;;;;;3.47;76.02;97208.69;5041320;28;20036;-72
2023/10/18 08:46:26;;;;;;;0.50;0.50;;;;;;;3.65;75.43;97209.41;5047286;28;20068;-72
2023/10/18 08:48:57;;;;;;;0.55;0.55;;;;;;;3.83;75.62;97206.66;5039379;28;20063;-72
2023/10/18 08:51:27;;;;;;;0.50;0.50;;;;;;;3.98;75.04;97208.47;5045350;28;20489;-72
2023/10/18 08:53:56;;;;;;;0.60;0.60;;;;;;;4.13;74.58;97200.75;5037437;28;20527;-72
2023/10/18 08:56:32;;;;;;;0.30;0.30;;;;;;;4.28;74.59;97204.38;5043188;28;20030;-72
2023/10/18 08:59:00;;;;;;;0.30;0.30;;;;;;;4.40;74.63;97197.78;5045958;28;20496;-72
2023/10/18 09:01:34;;;;;;;0.50;0.40;;;;;;;4.52;74.41;97192.97;5041578;28;20045;-72
2023/10/18 09:04:03;;;;;;;0.40;0.40;;;;;;;4.52;73.63;97190.34;5035084;28;20124;-72
2023/10/18 09:06:32;;;;;;;0.50;0.50;;;;;;;4.65;73.51;97185.38;5039612;28;20141;-72
2023/10/18 09:09:08;;;;;;;0.43;0.43;;;;;;;4.81;73.48;97173.94;5045640;28;20042;-72
2023/10/18 09:11:36;;;;;;;0.52;0.52;;;;;;;4.95;73.54;97173.25;5037992;28;20060;-72
2023/10/18 09:14:08;;;;;;;0.40;0.40;;;;;;;5.06;73.39;97167.59;5053246;28;20116;-72
2023/10/18 09:16:38;;;;;;;0.50;0.50;;;;;;;5.20;72.21;97173.13;5040230;28;20041;-72
2023/10/18 09:19:08;;;;;;;0.73;0.55;;;;;;;5.31;72.03;97178.06;5045486;28;20094;-72
2023/10/18 09:21:50;;;;;;;0.55;0.55;;;;;;;5.42;71.66;97170.56;5036110;28;20392;-72
2023/10/18 09:24:23;;;;;;;0.50;0.50;;;;;;;5.56;71.76;97165.53;5049594;28;20040;-72
2023/10/18 09:26:50;;;;;;;0.35;0.35;;;;;;;5.67;71.75;97165.16;5037290;28;20045;-72
2023/10/18 09:29:19;;;;;;;0.40;0.40;;;;;;;5.78;71.80;97168.22;5046071;28;20049;-72
2023/10/18 09:31:54;;;;;;;0.43;0.43;;;;;;;5.91;72.05;97158.91;5043147;28;20060;-72
2023/10/18 09:34:33;;;;;;;0.40;0.40;;;;;;;6.02;71.14;97148.72;5044116;28;20064;-72
2023/10/18 09:37:04;;;;;;;0.40;0.40;;;;;;;6.14;71.86;97147.28;5037686;28;20046;-72
2023/10/18 09:39:38;;;;;;;0.50;0.50;;;;;;;6.24;70.94;97141.75;5043112;28;20144;-72
2023/10/18 09:42:12;;;;;;;0.55;0.55;;;;;;;6.35;70.84;97145.81;5048658;28;20046;-72
2023/10/18 09:44:41;;;;;;;0.50;0.50;;;;;;;6.48;71.44;97133.59;5042344;28;20393;-72
2023/10/18 09:47:09;;;;;;;0.45;0.45;;;;;;;6.60;69.72;97140.09;5045805;28;20045;-72
2023/10/18 09:49:40;;;;;;;0.30;0.30;;;;;;;6.71;70.15;97138.84;5039366;28;20042;-72
2023/10/18 09:52:11;;;;;;;0.50;0.50;;;;;;;6.81;69.47;97135.91;5033490;28;20400;-72
2023/10/18 09:54:43;;;;;;;0.88;0.40;;;;;;;6.87;69.06;97129.88;5037304;28;20045;-72
2023/10/18 09:57:23;;;;;;;0.50;0.50;;;;;;;6.97;68.96;97133.06;5043285;28;20492;-72
2023/10/18 09:59:52;;;;;;;0.55;0.55;;;;;;;7.04;68.10;97130.53;5035564;28;20048;-72
2023/10/18 10:02:20;;;;;;;0.40;0.40;;;;;;;7.15;67.81;97120.28;5043887;28;20079;-72
2023/10/18 10:04:52;;;;;;;0.50;0.50;;;;;;;7.27;68.63;97117.94;5035388;28;20050;-72
2023/10/18 10:07:37;;;;;;;0.50;0.50;;;;;;;7.39;68.95;97116.47;5042964;28;20549;-72
2023/10/18 10:10:08;;;;;;;0.60;0.60;;;;;;;7.55;67.54;97115.44;5031149;28;20045;-72
2023/10/18 10:12:41;;;;;;;0.70;0.70;;;;;;;7.66;67.70;97107.78;5045434;28;20121;-72
2023/10/18 10:15:14;;;;;;;0.50;0.50;;;;;;;7.76;67.76;97106.66;5047395;28;20045;-72
2023/10/18 10:17:45;;;;;;;0.55;0.55;;;;;;;7.89;68.06;97109.47;5040353;28;20036;-72
2023/10/18 10:20:15;;;;;;;0.57;0.57;;;;;;;8.03;66.89;97105.91;5045869;28;20049;-72
2023/10/18 10:22:44;;;;;;;0.73;0.40;;;;;;;8.16;67.09;97095.38;5038990;28;20068;-72
2023/10/18 10:25:19;;;;;;;0.50;0.50;;;;;;;8.28;67.07;97101.00;5044280;28;20045;-72
2023/10/18 10:28:14;;;;;;;0.30;0.30;;;;;;;8.40;65.69;97091.53;5045833;28;20048;-72
2023/10/18 10:30:43;;;;;;;0.52;0.52;;;;;;;8.52;65.14;97092.63;5037432;28;20121;-72
2023/10/18 10:33:13;;;;;;;0.30;0.30;;;;;;;8.60;63.95;97083.69;5047819;28;20495;-72
2023/10/18 10:35:46;;;;;;;0.63;0.63;;;;;;;8.71;65.75;97075.97;5035598;28;20072;-72
2023/10/18 10:38:18;;;;;;;0.30;0.30;;;;;;;8.82;64.07;97072.75;5045104;28;20032;-72
2023/10/18 10:40:49;;;;;;;0.60;0.60;;;;;;;8.94;64.57;97073.03;5034548;28;20053;-72
2023/10/18 10:43:19;;;;;;;0.45;0.45;;;;;;;9.02;64.18;97070.22;5046707;28;20519;-72
2023/10/18 10:45:54;;;;;;;0.40;0.40;;;;;;;9.14;64.06;97065.13;5057307;28;20522;-72
2023/10/18 10:48:32;;;;;;;0.30;0.30;;;;;;;9.25;63.09;97059.22;5050368;28;20055;-73
2023/10/18 10:51:08;;;;;;;0.47;0.47;;;;;;;9.34;61.16;97055.38;5048614;28;20060;-72
2023/10/18 10:53:43;;;;;;;0.40;0.40;;;;;;;9.43;62.55;97051.53;5042654;28;20040;-72
2023/10/18 10:56:18;;;;;;;0.30;0.30;;;;;;;9.52;62.98;97050.31;5046375;28;20037;-72
2023/10/18 10:58:54;;;;;;;0.25;0.25;;;;;;;9.59;60.59;97045.00;5039274;28;20040;-73
2023/10/18 11:01:39;;;;;;;0.30;0.30;;;;;;;9.67;60.69;97036.78;5045287;28;20057;-73
2023/10/18 11:04:14;;;;;;;0.35;0.35;;;;;;;9.74;60.77;97031.50;5043061;28;20115;-72
2023/10/18 11:06:44;;;;;;;0.38;0.38;;;;;;;9.80;59.89;97025.34;5045198;28;20068;-73
2023/10/18 11:09:16;;;;;;;0.30;0.30;;;;;;;9.88;61.20;97023.28;5048340;28;20481;-73
2023/10/18 11:11:45;;;;;;;;;;;;;;;9.94;58.95;97006.50;5041551;28;20041;-72
2023/10/18 11:14:18;;;;;;;0.40;0.40;;;;;;;10.02;59.96;97002.78;5034869;28;19929;-72
2023/10/18 11:16:49;;;;;;;0.20;0.20;;;;;;;10.10;59.97;96999.91;5038845;28;20052;-72
2023/10/18 11:19:18;;;;;;;0.30;0.30;;;;;;;10.16;58.98;97000.97;5045618;28;20048;-72
2023/10/18 11:21:48;;;;;;;0.20;0.20;;;;;;;10.23;57.96;96991.94;5038390;28;20041;-72
2023/10/18 11:24:21;;;;;;;0.65;0.30;;;;;;;10.29;59.99;96976.94;5061869;28;20051;-72
2023/10/18 11:26:50;;;;;;;0.52;0.52;;;;;;;10.37;59.02;96970.59;5051151;28;20052;-72
2023/10/18 11:29:24;;;;;;;0.30;0.30;;;;;;;10.44;58.76;96966.88;5060306;28;20045;-72
2023/10/18 11:31:55;;;;;;;0.50;0.40;;;;;;;10.53;57.33;96970.94;5045277;28;20076;-72
2023/10/18 11:34:23;;;;;;;0.30;0.30;;;;;;;10.61;57.91;96968.03;5047590;28;20037;-72
2023/10/18 11:36:54;;;;;;;0.30;0.30;;;;;;;10.76;57.31;96972.31;5041608;28;20120;-73
2023/10/18 11:39:23;;;;;;;0.63;0.63;;;;;;;10.88;57.38;96965.28;5045100;28;20433;-72
2023/10/18 11:41:53;;;;;;;0.38;0.30;;;;;;;10.98;56.02;96960.31;5039660;28;20057;-73
2023/10/18 11:44:30;;;;;;;0.35;0.30;;;;;;;11.11;55.78;96962.09;5043836;28;20045;-73
2023/10/18 11:47:08;;;;;;;0.10;0.10;;;;;;;11.26;56.37;96958.09;5037167;28;20385;-72
2023/10/18 11:49:37;;;;;;;0.20;0.20;;;;;;;11.37;56.95;96953.94;5041886;28;20034;-72
2023/10/18 11:52:12;;;;;;;0.30;0.30;;;;;;;11.50;56.75;96950.34;5035520;28;20125;-72
2023/10/18 11:54:41;;;;;;;0.28;0.28;;;;;;;11.60;57.00;96940.81;5040418;28;20091;-72
2023/10/18 11:57:24;;;;;;;0.30;0.30;;;;;;;11.78;56.21;96945.44;5045825;28;20124;-72
2023/10/18 11:59:53;;;;;;;0.25;0.25;;;;;;;11.94;57.32;96939.53;5038029;28;20045;-72
2023/10/18 12:02:21;;;;;;;0.22;0.22;;;;;;;12.13;56.48;96941.22;5046460;28;20040;-73
2023/10/18 12:04:49;;;;;;;0.20;0.20;;;;;;;12.26;55.80;96942.09;5038788;28;20042;-72
2023/10/18 12:07:18;;;;;;;0.30;0.30;;;;;;;12.41;55.23;96939.91;5054279;28;20101;-72
2023/10/18 12:09:51;;;;;;;0.20;0.20;;;;;;;12.57;55.77;96927.78;5037874;28;20057;-72
2023/10/18 12:12:20;;;;;;;0.20;0.20;;;;;;;12.76;54.39;96918.72;5049513;28;20041;-72